createdAt,value
2023-02-09T00:00:11.845Z,12.93
2023-02-09T00:02:39.032Z,13.00
2023-02-09T00:05:06.019Z,13.50
2023-02-09T00:07:32.756Z,12.50
2023-02-09T00:09:59.410Z,12.57
2023-02-09T00:12:44.808Z,13.07
2023-02-09T00:15:11.824Z,13.17
2023-02-09T00:17:38.506Z,13.33
2023-02-09T00:20:06.475Z,12.37
2023-02-09T00:22:33.916Z,12.70
2023-02-09T00:25:00.582Z,12.40
2023-02-09T00:27:27.227Z,13.10
2023-02-09T00:29:53.947Z,13.50
2023-02-09T00:32:20.575Z,13.37
2023-02-09T00:34:47.253Z,14.27
2023-02-09T00:37:13.863Z,12.57
2023-02-09T00:39:40.483Z,13.67
2023-02-09T00:42:07.151Z,12.97
2023-02-09T00:44:40.241Z,13.90
2023-02-09T00:47:08.222Z,14.57
2023-02-09T00:49:35.029Z,13.63
2023-02-09T00:52:01.984Z,14.70
2023-02-09T00:54:28.692Z,14.70
2023-02-09T00:56:55.309Z,13.17
2023-02-09T00:59:21.952Z,12.20
2023-02-09T01:01:48.565Z,13.30
2023-02-09T01:04:15.379Z,13.20
2023-02-09T01:06:42.047Z,13.87
2023-02-09T01:09:08.757Z,14.07
2023-02-09T01:11:35.425Z,14.10
2023-02-09T01:14:04.338Z,13.53
2023-02-09T01:16:31.767Z,12.83
2023-02-09T01:19:02.524Z,13.07
2023-02-09T01:21:29.685Z,12.47
2023-02-09T01:23:57.102Z,12.70
2023-02-09T01:26:23.742Z,12.50
2023-02-09T01:28:51.829Z,11.67
2023-02-09T01:31:23.881Z,12.57
2023-02-09T01:33:51.503Z,12.27
2023-02-09T01:36:18.667Z,12.93
2023-02-09T01:38:45.484Z,11.80
2023-02-09T01:41:12.754Z,12.70
2023-02-09T01:44:01.242Z,14.87
2023-02-09T01:46:30.878Z,15.23
2023-02-09T01:49:08.006Z,14.27
2023-02-09T01:51:54.776Z,13.57
2023-02-09T01:54:27.287Z,13.47
2023-02-09T01:57:02.396Z,13.07
2023-02-09T01:59:29.948Z,12.90
2023-02-09T02:01:56.609Z,12.57
2023-02-09T02:04:23.255Z,13.43
2023-02-09T02:06:51.604Z,13.20
2023-02-09T02:09:18.459Z,13.33
2023-02-09T02:11:47.824Z,11.53
2023-02-09T02:14:34.285Z,12.47
2023-02-09T02:17:15.754Z,12.40
2023-02-09T02:20:10.222Z,12.37
2023-02-09T02:22:55.770Z,11.50
2023-02-09T02:25:35.233Z,12.00
2023-02-09T02:28:25.473Z,11.73
2023-02-09T02:31:18.273Z,12.70
2023-02-09T02:34:06.689Z,11.93
2023-02-09T02:36:55.347Z,13.07
2023-02-09T02:39:36.849Z,13.70
2023-02-09T02:42:29.168Z,13.20
2023-02-09T02:45:22.895Z,11.63
2023-02-09T02:47:58.730Z,11.47
2023-02-09T02:50:30.551Z,13.33
2023-02-09T02:53:02.802Z,12.53
2023-02-09T02:55:32.640Z,11.53
2023-02-09T02:58:04.117Z,15.03
2023-02-09T03:00:41.894Z,14.60
2023-02-09T03:03:26.496Z,13.73
2023-02-09T03:05:53.967Z,14.30
2023-02-09T03:08:20.619Z,16.50
2023-02-09T03:10:48.135Z,14.10
2023-02-09T03:13:36.673Z,12.33
2023-02-09T03:16:09.244Z,12.83
2023-02-09T03:18:59.240Z,13.23
2023-02-09T03:21:28.620Z,14.20
2023-02-09T03:24:02.520Z,13.10
2023-02-09T03:26:52.842Z,13.33
2023-02-09T03:29:21.548Z,11.80
2023-02-09T03:31:49.043Z,12.70
2023-02-09T03:34:16.410Z,13.10
2023-02-09T03:36:44.733Z,11.50
2023-02-09T03:39:11.339Z,10.73
2023-02-09T03:41:38.144Z,13.93
2023-02-09T03:44:23.277Z,11.90
2023-02-09T03:46:49.972Z,11.57
2023-02-09T03:49:16.659Z,11.23
2023-02-09T03:51:43.349Z,11.57
2023-02-09T03:54:10.118Z,12.57
2023-02-09T03:56:37.444Z,11.33
2023-02-09T03:59:05.789Z,11.13
2023-02-09T04:01:33.315Z,13.13
2023-02-09T04:04:01.923Z,11.67
2023-02-09T04:06:29.922Z,12.10
2023-02-09T04:08:57.197Z,11.30
2023-02-09T04:11:24.326Z,11.90
2023-02-09T04:13:51.016Z,12.50
2023-02-09T04:16:18.243Z,11.57
2023-02-09T04:18:45.553Z,11.80
2023-02-09T04:21:12.868Z,12.97
2023-02-09T04:23:39.520Z,13.27
2023-02-09T04:26:06.876Z,12.97
2023-02-09T04:28:33.535Z,13.27
2023-02-09T04:31:00.248Z,14.13
2023-02-09T04:33:26.967Z,15.13
2023-02-09T04:35:53.669Z,14.03
2023-02-09T04:38:21.840Z,11.70
2023-02-09T04:40:50.271Z,12.53
2023-02-09T04:43:17.195Z,13.17
2023-02-09T04:45:44.383Z,13.50
2023-02-09T04:48:13.821Z,11.63
2023-02-09T04:50:40.879Z,13.17
2023-02-09T04:53:07.637Z,14.00
2023-02-09T04:55:39.990Z,15.97
2023-02-09T04:58:25.690Z,15.93
2023-02-09T05:00:55.445Z,14.83
2023-02-09T05:03:24.606Z,14.40
2023-02-09T05:05:55.636Z,13.77
2023-02-09T05:08:23.016Z,14.20
2023-02-09T05:10:54.066Z,16.30
2023-02-09T05:13:22.222Z,20.77
2023-02-09T05:15:49.452Z,16.40
2023-02-09T05:18:16.754Z,13.83
2023-02-09T05:20:45.171Z,12.80
2023-02-09T05:23:12.493Z,15.10
2023-02-09T05:25:39.809Z,13.10
2023-02-09T05:28:06.893Z,13.17
2023-02-09T05:30:34.060Z,12.47
2023-02-09T05:33:00.705Z,12.27
2023-02-09T05:35:27.381Z,13.30
2023-02-09T05:37:54.006Z,12.43
2023-02-09T05:40:20.782Z,16.50
2023-02-09T05:42:47.454Z,14.47
2023-02-09T05:45:14.125Z,13.57
2023-02-09T05:47:40.765Z,13.87
2023-02-09T05:50:07.655Z,15.03
2023-02-09T05:52:34.281Z,12.03
2023-02-09T05:55:00.958Z,12.97
2023-02-09T05:57:27.663Z,14.33
2023-02-09T05:59:54.341Z,15.90
2023-02-09T06:02:21.052Z,14.43
2023-02-09T06:04:47.779Z,13.50
2023-02-09T06:07:14.474Z,14.53
2023-02-09T06:09:41.110Z,13.90
2023-02-09T06:12:07.778Z,13.13
2023-02-09T06:14:34.393Z,13.47
2023-02-09T06:17:01.028Z,11.57
2023-02-09T06:19:27.762Z,13.67
2023-02-09T06:21:54.455Z,12.80
2023-02-09T06:24:21.123Z,13.10
2023-02-09T06:26:48.126Z,13.43
2023-02-09T06:29:14.781Z,12.57
2023-02-09T06:31:41.903Z,13.40
2023-02-09T06:34:09.473Z,13.57
2023-02-09T06:36:36.407Z,12.73
2023-02-09T06:39:08.263Z,13.33
2023-02-09T06:41:35.386Z,13.63
2023-02-09T06:44:10.248Z,13.70
2023-02-09T06:46:37.050Z,15.23
2023-02-09T06:49:03.854Z,14.47
2023-02-09T06:51:30.706Z,14.43
2023-02-09T06:53:57.786Z,15.57
2023-02-09T06:56:24.448Z,13.87
2023-02-09T06:58:51.118Z,14.60
2023-02-09T07:01:17.893Z,13.50
2023-02-09T07:03:45.135Z,14.20
2023-02-09T07:06:17.402Z,15.13
2023-02-09T07:08:45.469Z,13.43
2023-02-09T07:11:15.478Z,15.50
2023-02-09T07:13:42.775Z,16.63
2023-02-09T07:16:11.083Z,14.77
2023-02-09T07:18:38.084Z,15.53
2023-02-09T07:21:11.054Z,14.80
2023-02-09T07:23:38.988Z,15.27
2023-02-09T07:26:08.431Z,15.63
2023-02-09T07:28:36.201Z,15.50
2023-02-09T07:31:06.473Z,16.30
2023-02-09T07:33:33.831Z,15.00
2023-02-09T07:36:02.658Z,15.97
2023-02-09T07:38:29.762Z,15.07
2023-02-09T07:40:59.576Z,15.53
2023-02-09T07:43:27.104Z,15.93
2023-02-09T07:45:58.940Z,17.13
2023-02-09T07:48:25.903Z,15.93
2023-02-09T07:50:53.178Z,18.87
2023-02-09T07:53:19.831Z,21.53
2023-02-09T07:55:46.742Z,19.63
2023-02-09T07:58:14.835Z,19.70
2023-02-09T08:00:41.514Z,18.40
2023-02-09T08:03:08.158Z,18.63
2023-02-09T08:06:02.501Z,21.17
2023-02-09T08:08:29.638Z,20.60
2023-02-09T08:10:58.596Z,22.00
2023-02-09T08:13:29.081Z,22.47
2023-02-09T08:16:00.732Z,24.13
2023-02-09T08:18:44.621Z,24.17
2023-02-09T08:21:15.399Z,25.47
2023-02-09T08:23:44.880Z,29.57
2023-02-09T08:26:13.255Z,23.57
2023-02-09T08:28:45.447Z,23.13
2023-02-09T08:31:13.592Z,23.27
2023-02-09T08:33:40.930Z,22.00
2023-02-09T08:36:08.346Z,22.23
2023-02-09T08:38:35.322Z,21.87
2023-02-09T08:41:04.616Z,24.00
2023-02-09T08:43:31.709Z,19.70
2023-02-09T08:46:25.291Z,22.20
2023-02-09T08:48:53.126Z,20.93
2023-02-09T08:51:19.985Z,21.60
2023-02-09T08:53:52.666Z,25.07
2023-02-09T08:56:20.829Z,21.17
2023-02-09T08:58:47.913Z,22.03
2023-02-09T09:01:14.683Z,23.27
2023-02-09T09:03:42.217Z,21.83
2023-02-09T09:06:11.342Z,21.10
2023-02-09T09:08:39.754Z,22.07
2023-02-09T09:11:09.409Z,22.73
2023-02-09T09:13:36.067Z,22.43
2023-02-09T09:16:05.079Z,22.63
2023-02-09T09:18:32.292Z,21.23
2023-02-09T09:20:59.099Z,21.33
2023-02-09T09:23:25.821Z,21.87
2023-02-09T09:25:52.544Z,22.83
2023-02-09T09:28:19.275Z,23.40
2023-02-09T09:30:46.107Z,23.13
2023-02-09T09:33:12.921Z,22.20
2023-02-09T09:35:39.813Z,23.40
2023-02-09T09:38:06.573Z,23.90
2023-02-09T09:40:36.264Z,23.57
2023-02-09T09:43:05.989Z,24.60
2023-02-09T09:45:35.399Z,23.30
2023-02-09T09:48:02.523Z,23.10
2023-02-09T09:50:39.117Z,23.23
2023-02-09T09:53:33.368Z,22.27
2023-02-09T09:56:04.728Z,22.87
2023-02-09T09:58:33.156Z,23.73
2023-02-09T10:01:00.071Z,22.17
2023-02-09T10:03:27.323Z,22.67
2023-02-09T10:05:58.444Z,22.07
2023-02-09T10:08:55.447Z,22.00
2023-02-09T10:11:30.723Z,22.77
2023-02-09T10:13:58.085Z,25.00
2023-02-09T10:16:38.293Z,24.13
2023-02-09T10:19:17.212Z,23.97
2023-02-09T10:21:43.886Z,23.83
2023-02-09T10:24:14.574Z,23.07
2023-02-09T10:26:42.865Z,24.43
2023-02-09T10:29:12.512Z,24.00
2023-02-09T10:31:43.282Z,24.00
2023-02-09T10:34:17.856Z,24.77
2023-02-09T10:36:47.270Z,22.70
2023-02-09T10:39:24.001Z,24.43
2023-02-09T10:41:53.269Z,23.23
2023-02-09T10:44:26.557Z,24.13
2023-02-09T10:47:28.977Z,23.97
2023-02-09T10:50:10.788Z,24.80
2023-02-09T10:52:53.712Z,24.07
2023-02-09T10:55:42.508Z,23.87
2023-02-09T10:58:09.232Z,21.90
2023-02-09T11:00:46.124Z,21.17
2023-02-09T11:03:26.360Z,21.80
2023-02-09T11:06:03.918Z,20.57
2023-02-09T11:08:54.961Z,21.47
2023-02-09T11:11:32.219Z,22.17
2023-02-09T11:13:59.853Z,20.97
2023-02-09T11:16:45.592Z,21.40
2023-02-09T11:19:40.520Z,21.37
2023-02-09T11:22:28.974Z,21.73
2023-02-09T11:25:00.121Z,20.43
2023-02-09T11:28:03.896Z,20.80
2023-02-09T11:31:13.240Z,21.63
2023-02-09T11:34:04.322Z,21.57
2023-02-09T11:36:58.338Z,19.93
2023-02-09T11:39:44.307Z,21.13
2023-02-09T11:42:34.808Z,19.27
2023-02-09T11:45:10.902Z,21.23
2023-02-09T11:48:05.725Z,20.67
2023-02-09T11:51:07.135Z,22.57
2023-02-09T11:53:39.510Z,23.00
2023-02-09T11:56:12.894Z,19.70
2023-02-09T11:59:08.649Z,19.30
2023-02-09T12:01:57.835Z,23.70
2023-02-09T12:04:43.532Z,20.40
2023-02-09T12:07:32.748Z,20.23
2023-02-09T12:10:29.876Z,22.37
2023-02-09T12:13:09.165Z,19.23
2023-02-09T12:15:44.265Z,21.63
2023-02-09T12:18:23.796Z,20.30
2023-02-09T12:21:02.241Z,20.93
2023-02-09T12:23:33.389Z,19.50
2023-02-09T12:26:01.272Z,20.60
2023-02-09T12:28:28.092Z,21.30
2023-02-09T12:30:57.690Z,20.33
2023-02-09T12:33:24.442Z,22.10
2023-02-09T12:36:26.453Z,19.87
2023-02-09T12:38:56.882Z,18.70
2023-02-09T12:41:42.838Z,20.40
2023-02-09T12:44:09.514Z,20.10
2023-02-09T12:46:45.394Z,19.60
2023-02-09T12:49:12.002Z,18.80
2023-02-09T12:51:50.676Z,19.43
2023-02-09T12:54:38.627Z,19.00
2023-02-09T12:57:20.541Z,17.20
2023-02-09T12:59:50.581Z,18.30
2023-02-09T13:02:46.282Z,18.37
2023-02-09T13:05:18.333Z,17.10
2023-02-09T13:08:17.340Z,18.77
2023-02-09T13:10:58.904Z,16.63
2023-02-09T13:13:44.173Z,16.83
2023-02-09T13:16:23.220Z,17.13
2023-02-09T13:19:08.503Z,16.60
2023-02-09T13:21:57.502Z,18.70
2023-02-09T13:24:36.091Z,18.40
2023-02-09T13:27:03.146Z,17.87
2023-02-09T13:29:31.708Z,19.33
2023-02-09T13:32:10.240Z,19.17
2023-02-09T13:35:05.817Z,20.03
2023-02-09T13:37:54.326Z,20.23
2023-02-09T13:40:32.591Z,17.63
2023-02-09T13:43:11.800Z,17.93
2023-02-09T13:45:48.829Z,18.33
2023-02-09T13:48:34.374Z,18.80
2023-02-09T13:51:04.678Z,18.87
2023-02-09T13:53:31.912Z,17.73
2023-02-09T13:56:00.354Z,18.17
2023-02-09T13:58:35.970Z,19.43
2023-02-09T14:01:12.366Z,19.00
2023-02-09T14:03:58.287Z,19.07
2023-02-09T14:06:44.354Z,18.00
2023-02-09T14:09:28.857Z,18.40
2023-02-09T14:12:15.066Z,17.80
2023-02-09T14:15:05.571Z,17.73
2023-02-09T14:17:38.733Z,17.90
2023-02-09T14:20:20.542Z,18.07
2023-02-09T14:22:56.361Z,17.47
2023-02-09T14:25:25.278Z,16.33
2023-02-09T14:27:52.903Z,18.30
2023-02-09T14:30:25.743Z,19.27
2023-02-09T14:32:57.650Z,17.10
2023-02-09T14:35:31.374Z,17.93
2023-02-09T14:38:00.408Z,18.43
2023-02-09T14:40:26.996Z,18.33
2023-02-09T14:43:11.846Z,18.60
2023-02-09T14:45:47.679Z,17.90
2023-02-09T14:48:20.605Z,17.23
2023-02-09T14:50:53.975Z,17.47
2023-02-09T14:53:21.810Z,17.90
2023-02-09T14:55:48.737Z,17.20
2023-02-09T14:58:24.444Z,18.33
2023-02-09T15:00:53.101Z,17.93
2023-02-09T15:03:20.024Z,17.50
2023-02-09T15:05:49.620Z,17.20
2023-02-09T15:08:20.567Z,17.73
2023-02-09T15:10:50.708Z,19.03
2023-02-09T15:13:17.367Z,18.10
2023-02-09T15:15:44.473Z,17.93
2023-02-09T15:18:18.793Z,17.40
2023-02-09T15:20:45.916Z,17.10
2023-02-09T15:23:12.629Z,19.57
2023-02-09T15:25:40.700Z,17.47
2023-02-09T15:28:27.888Z,16.77
2023-02-09T15:30:55.877Z,19.73
2023-02-09T15:33:22.722Z,17.53
2023-02-09T15:35:50.058Z,17.33
2023-02-09T15:38:18.332Z,17.70
2023-02-09T15:41:09.290Z,17.20
2023-02-09T15:43:54.801Z,19.50
2023-02-09T15:46:40.441Z,17.80
2023-02-09T15:49:07.520Z,17.53
2023-02-09T15:51:36.986Z,17.53
2023-02-09T15:54:08.724Z,18.23
2023-02-09T15:56:39.029Z,17.80
2023-02-09T15:59:06.043Z,17.80
2023-02-09T16:01:34.439Z,18.53
2023-02-09T16:04:13.376Z,18.43
2023-02-09T16:06:44.271Z,18.93
2023-02-09T16:09:18.816Z,17.77
2023-02-09T16:11:45.526Z,18.03
2023-02-09T16:14:24.188Z,18.70
2023-02-09T16:16:51.382Z,16.43
2023-02-09T16:19:19.084Z,17.73
2023-02-09T16:21:52.800Z,17.53
2023-02-09T16:24:41.182Z,19.10
2023-02-09T16:27:15.804Z,17.87
2023-02-09T16:29:42.761Z,18.30
2023-02-09T16:32:15.460Z,19.33
2023-02-09T16:34:42.301Z,18.93
2023-02-09T16:37:09.707Z,19.80
2023-02-09T16:39:36.381Z,19.47
2023-02-09T16:42:03.815Z,19.23
2023-02-09T16:44:33.109Z,19.10
2023-02-09T16:47:01.316Z,19.43
2023-02-09T16:50:01.432Z,20.60
2023-02-09T16:52:30.175Z,21.23
2023-02-09T16:54:59.315Z,18.40
2023-02-09T16:57:27.393Z,20.37
2023-02-09T16:59:54.566Z,19.27
2023-02-09T17:02:43.114Z,20.77
2023-02-09T17:05:28.247Z,19.60
2023-02-09T17:08:04.633Z,20.60
2023-02-09T17:10:34.666Z,19.80
2023-02-09T17:13:02.035Z,20.93
2023-02-09T17:15:32.299Z,19.67
2023-02-09T17:18:06.308Z,20.27
2023-02-09T17:20:40.040Z,19.50
2023-02-09T17:23:06.751Z,20.60
2023-02-09T17:25:33.623Z,21.47
2023-02-09T17:28:00.404Z,20.30
2023-02-09T17:30:27.139Z,18.60
2023-02-09T17:33:01.156Z,18.97
2023-02-09T17:35:52.939Z,18.37
2023-02-09T17:38:26.193Z,20.13
2023-02-09T17:40:55.039Z,20.27
2023-02-09T17:43:22.708Z,18.63
2023-02-09T17:45:51.190Z,19.87
2023-02-09T17:48:19.052Z,20.13
2023-02-09T17:50:48.330Z,21.70
2023-02-09T17:53:20.997Z,20.53
2023-02-09T17:55:48.701Z,21.73
2023-02-09T17:58:16.305Z,20.90
2023-02-09T18:00:44.030Z,22.07
2023-02-09T18:03:19.892Z,22.20
2023-02-09T18:05:55.581Z,21.77
2023-02-09T18:08:22.450Z,23.13
2023-02-09T18:10:49.421Z,21.57
2023-02-09T18:13:17.563Z,22.20
2023-02-09T18:15:45.066Z,22.07
2023-02-09T18:18:12.028Z,21.73
2023-02-09T18:20:38.634Z,21.90
2023-02-09T18:23:05.549Z,20.43
2023-02-09T18:25:37.597Z,21.03
2023-02-09T18:28:06.570Z,21.53
2023-02-09T18:30:36.516Z,19.70
2023-02-09T18:33:03.870Z,22.23
2023-02-09T18:35:35.252Z,19.57
2023-02-09T18:38:03.660Z,20.07
2023-02-09T18:40:32.052Z,19.27
2023-02-09T18:43:02.306Z,19.07
2023-02-09T18:45:30.491Z,18.17
2023-02-09T18:47:57.752Z,18.50
2023-02-09T18:50:29.558Z,18.40
2023-02-09T18:52:58.761Z,18.87
2023-02-09T18:55:29.247Z,18.57
2023-02-09T18:57:57.649Z,18.37
2023-02-09T19:00:24.790Z,18.37
2023-02-09T19:02:54.132Z,17.57
2023-02-09T19:05:20.849Z,18.07
2023-02-09T19:07:47.583Z,18.47
2023-02-09T19:10:17.529Z,20.27
2023-02-09T19:12:45.295Z,18.47
2023-02-09T19:15:17.514Z,19.80
2023-02-09T19:17:45.415Z,17.63
2023-02-09T19:20:17.758Z,18.40
2023-02-09T19:22:45.315Z,18.20
2023-02-09T19:25:11.919Z,19.53
2023-02-09T19:27:38.602Z,26.57
2023-02-09T19:30:05.674Z,21.70
2023-02-09T19:32:32.497Z,22.60
2023-02-09T19:34:59.126Z,23.33
2023-02-09T19:37:25.789Z,23.77
2023-02-09T19:39:53.057Z,20.20
2023-02-09T19:42:21.612Z,19.07
2023-02-09T19:44:48.914Z,17.90
2023-02-09T19:47:16.084Z,18.93
2023-02-09T19:49:43.097Z,19.60
2023-02-09T19:52:09.747Z,19.90
2023-02-09T19:54:36.384Z,20.30
2023-02-09T19:57:06.305Z,19.40
2023-02-09T19:59:32.960Z,18.03
2023-02-09T20:01:59.594Z,18.70
2023-02-09T20:04:26.471Z,17.27
2023-02-09T20:06:53.068Z,17.23
2023-02-09T20:09:19.672Z,17.73
2023-02-09T20:11:46.297Z,17.60
2023-02-09T20:14:13.008Z,18.07
2023-02-09T20:16:40.118Z,18.93
2023-02-09T20:19:07.056Z,18.17
2023-02-09T20:21:33.780Z,20.50
2023-02-09T20:24:00.456Z,18.80
2023-02-09T20:26:32.881Z,18.67
2023-02-09T20:29:01.676Z,19.07
2023-02-09T20:31:34.481Z,18.47
2023-02-09T20:34:05.136Z,18.37
2023-02-09T20:36:36.477Z,19.97
2023-02-09T20:39:05.033Z,20.63
2023-02-09T20:41:31.892Z,20.37
2023-02-09T20:44:16.916Z,19.33
2023-02-09T20:46:56.733Z,19.37
2023-02-09T20:49:36.924Z,19.37
2023-02-09T20:52:03.630Z,20.40
2023-02-09T20:54:31.854Z,19.77
2023-02-09T20:56:58.994Z,19.70
2023-02-09T20:59:25.759Z,19.13
2023-02-09T21:01:52.481Z,19.73
2023-02-09T21:04:19.136Z,19.20
2023-02-09T21:06:45.798Z,19.57
2023-02-09T21:09:14.170Z,20.97
2023-02-09T21:11:41.671Z,21.27
2023-02-09T21:14:13.237Z,21.23
2023-02-09T21:16:44.802Z,21.23
2023-02-09T21:19:11.476Z,21.73
2023-02-09T21:21:39.644Z,21.23
2023-02-09T21:24:06.419Z,20.57
2023-02-09T21:26:34.165Z,20.40
2023-02-09T21:29:00.781Z,18.43
2023-02-09T21:31:28.408Z,19.57
2023-02-09T21:33:55.257Z,19.53
2023-02-09T21:36:21.946Z,19.10
2023-02-09T21:38:48.615Z,18.30
2023-02-09T21:41:37.385Z,17.37
2023-02-09T21:44:05.198Z,18.57
2023-02-09T21:46:32.147Z,18.37
2023-02-09T21:48:58.795Z,17.30
2023-02-09T21:51:25.427Z,17.93
2023-02-09T21:53:52.040Z,18.57
2023-02-09T21:56:18.942Z,20.20
2023-02-09T21:58:45.546Z,21.40
2023-02-09T22:01:12.265Z,24.67
2023-02-09T22:03:39.419Z,21.90
2023-02-09T22:06:06.985Z,24.57
2023-02-09T22:08:33.726Z,22.77
2023-02-09T22:11:01.851Z,24.93
2023-02-09T22:13:29.410Z,23.73
2023-02-09T22:15:56.200Z,22.27
2023-02-09T22:18:23.886Z,22.33
2023-02-09T22:20:50.884Z,21.60
2023-02-09T22:23:18.986Z,21.83
2023-02-09T22:25:45.650Z,21.47
2023-02-09T22:28:13.642Z,18.80
2023-02-09T22:30:40.335Z,19.03
2023-02-09T22:33:06.988Z,18.97
2023-02-09T22:35:33.591Z,18.77
2023-02-09T22:38:00.176Z,20.07
2023-02-09T22:40:26.784Z,18.67
2023-02-09T22:42:53.390Z,18.67
2023-02-09T22:45:20.049Z,18.87
2023-02-09T22:47:46.689Z,18.30
2023-02-09T22:50:13.334Z,20.50
2023-02-09T22:52:39.909Z,21.07
2023-02-09T22:55:06.700Z,18.20
2023-02-09T22:57:33.394Z,19.27
2023-02-09T23:00:00.032Z,19.10
2023-02-09T23:02:26.726Z,18.37
2023-02-09T23:04:53.400Z,17.90
2023-02-09T23:07:20.109Z,18.23
2023-02-09T23:09:46.755Z,18.17
2023-02-09T23:12:13.459Z,17.60
2023-02-09T23:14:40.090Z,16.83
2023-02-09T23:17:06.804Z,17.90
2023-02-09T23:19:33.506Z,17.53
2023-02-09T23:22:00.249Z,18.83
2023-02-09T23:24:27.752Z,17.67
2023-02-09T23:26:55.125Z,18.63
2023-02-09T23:29:22.015Z,18.33
2023-02-09T23:31:49.220Z,19.63
2023-02-09T23:34:19.773Z,18.97
2023-02-09T23:36:47.348Z,18.47
2023-02-09T23:39:16.339Z,17.77
2023-02-09T23:41:43.143Z,17.27
2023-02-09T23:44:10.157Z,17.87
2023-02-09T23:46:37.105Z,18.80
2023-02-09T23:49:03.976Z,19.30
2023-02-09T23:51:34.094Z,18.43
2023-02-09T23:54:03.274Z,18.67
2023-02-09T23:56:36.865Z,18.63
2023-02-09T23:59:09.203Z,17.97
